createdAt,value
2019-05-01T00:00:01.366Z,5.40
2019-05-01T00:02:58.438Z,5.17
2019-05-01T00:05:31.637Z,5.10
2019-05-01T00:08:00.681Z,5.07
2019-05-01T00:10:31.242Z,5.43
2019-05-01T00:13:03.533Z,4.97
2019-05-01T00:15:34.265Z,5.27
2019-05-01T00:18:03.257Z,5.23
2019-05-01T00:20:32.308Z,5.83
2019-05-01T00:23:10.148Z,5.17
2019-05-01T00:25:39.189Z,5.73
2019-05-01T00:28:08.581Z,7.10
2019-05-01T04:45:55.506Z,6.57
2019-05-01T04:51:08.798Z,7.00
2019-05-01T04:53:38.342Z,7.10
2019-05-01T04:56:07.645Z,7.60
2019-05-01T04:58:46.092Z,6.40
2019-05-01T05:01:15.319Z,6.87
2019-05-01T05:03:45.876Z,6.50
2019-05-01T05:06:17.145Z,7.00
2019-05-01T05:08:55.517Z,6.97
2019-05-01T05:11:27.549Z,7.00
2019-05-01T05:14:14.158Z,6.80
2019-05-01T05:17:01.913Z,6.73
2019-05-01T05:19:31.066Z,7.50
2019-05-01T05:22:02.650Z,6.77
2019-05-01T05:24:31.894Z,6.30
2019-05-01T05:27:14.906Z,6.90
2019-05-01T05:29:45.238Z,6.93
2019-05-01T05:32:16.105Z,6.70
2019-05-01T05:34:47.253Z,6.57
2019-05-01T05:37:30.613Z,7.00
2019-05-01T05:40:01.175Z,7.37
2019-05-01T05:42:30.851Z,6.97
2019-05-01T05:45:00.313Z,7.80
2019-05-01T05:47:42.040Z,7.23
2019-05-01T05:50:14.494Z,6.70
2019-05-01T05:52:51.610Z,6.63
2019-05-01T05:55:35.540Z,7.10
2019-05-01T06:01:30.420Z,7.13
2019-05-01T06:04:30.198Z,7.47
2019-05-01T06:07:39.258Z,6.93
2019-05-01T06:10:33.564Z,7.23
2019-05-01T06:13:21.959Z,6.83
2019-05-01T06:16:12.170Z,6.97
2019-05-01T06:22:10.342Z,7.03
2019-05-01T06:24:42.411Z,7.20
2019-05-01T06:27:13.658Z,7.57
2019-05-01T06:29:56.134Z,7.30
2019-05-01T06:32:28.838Z,7.40
2019-05-01T07:23:12.786Z,11.77
2019-05-01T07:32:06.335Z,12.40
2019-05-01T07:48:58.726Z,11.17
2019-05-01T07:52:26.005Z,13.10
2019-05-01T07:54:55.086Z,13.03
2019-05-01T07:57:41.392Z,15.33
2019-05-01T08:04:36.767Z,17.97
2019-05-01T08:08:51.091Z,17.33
2019-05-01T08:09:50.316Z,19.00
2019-05-01T08:16:58.729Z,20.30
2019-05-01T08:18:18.708Z,21.00
2019-05-01T08:24:45.693Z,21.37
2019-05-01T08:27:33.565Z,21.10
2019-05-01T08:44:30.801Z,22.10
2019-05-01T08:47:06.870Z,22.05
2019-05-01T08:52:42.715Z,21.80
2019-05-01T08:55:54.643Z,22.65
2019-05-01T08:58:23.915Z,21.70
2019-05-01T09:01:01.794Z,21.68
2019-05-01T09:03:30.918Z,20.72
2019-05-01T09:06:00.110Z,21.07
2019-05-01T09:08:32.091Z,20.72
2019-05-01T09:11:10.111Z,19.50
2019-05-01T09:13:39.519Z,21.82
2019-05-01T09:17:02.916Z,21.07
2019-05-01T09:22:17.484Z,20.90
2019-05-01T10:22:19.078Z,19.12
2019-05-01T10:25:08.523Z,18.20
2019-05-01T10:27:53.107Z,21.23
2019-05-01T10:34:02.969Z,20.10
2019-05-01T10:36:36.801Z,20.32
2019-05-01T10:39:10.485Z,21.05
2019-05-01T10:41:48.906Z,19.82
2019-05-01T10:44:18.021Z,20.10
2019-05-01T10:46:46.935Z,18.35
2019-05-01T10:49:15.958Z,19.17
2019-05-01T10:52:13.561Z,18.23
2019-05-01T10:54:32.426Z,14.63
2019-05-01T10:57:03.340Z,14.13
2019-05-01T10:59:32.419Z,14.73
2019-05-01T11:02:13.381Z,15.03
2019-05-01T11:04:45.436Z,14.47
2019-05-01T11:07:14.604Z,14.03
2019-05-01T11:09:45.507Z,14.63
2019-05-01T11:12:39.068Z,14.87
2019-05-01T11:15:00.834Z,14.13
2019-05-01T11:17:29.653Z,15.37
2019-05-01T11:20:00.459Z,17.20
2019-05-01T11:22:38.557Z,13.13
2019-05-01T11:25:08.931Z,11.97
2019-05-01T12:01:40.067Z,20.53
2019-05-01T12:04:09.635Z,20.70
2019-05-01T12:06:38.737Z,20.40
2019-05-01T12:09:09.568Z,20.13
2019-05-01T12:11:49.094Z,21.97
2019-05-01T12:14:18.756Z,20.20
2019-05-01T12:17:22.169Z,21.47
2019-05-01T12:19:52.951Z,20.27
2019-05-01T12:25:47.870Z,20.53
2019-05-01T12:28:16.929Z,21.17
2019-05-01T12:30:46.016Z,21.13
2019-05-01T13:02:51.831Z,18.53
2019-05-01T13:05:23.027Z,18.27
2019-05-01T13:07:54.234Z,17.33
2019-05-01T13:11:53.979Z,16.47
2019-05-01T13:13:12.764Z,17.83
2019-05-01T13:15:45.722Z,17.70
2019-05-01T13:18:23.880Z,15.53
2019-05-01T13:28:46.648Z,13.33
2019-05-01T13:34:28.538Z,14.30
2019-05-01T13:37:07.940Z,14.00
2019-05-01T13:39:50.109Z,15.90
2019-05-01T13:42:32.463Z,14.30
2019-05-01T13:45:04.704Z,14.80
2019-05-01T13:47:44.424Z,14.00
2019-05-01T13:50:25.864Z,13.67
2019-05-01T13:55:32.347Z,16.27
2019-05-01T13:58:04.605Z,15.73
2019-05-01T14:00:42.713Z,15.10
2019-05-01T18:07:55.254Z,9.13
2019-05-01T18:10:24.654Z,9.37
2019-05-01T18:12:55.902Z,8.23
2019-05-01T18:15:34.369Z,9.20
2019-05-01T18:18:03.541Z,8.67
2019-05-01T18:20:32.645Z,9.00
2019-05-01T18:23:35.973Z,8.60
2019-05-01T18:26:45.040Z,8.10
2019-05-01T18:29:23.487Z,8.33
2019-05-01T18:31:55.665Z,9.27
2019-05-01T18:34:24.772Z,8.20
